Tarnov, Nebraska
Current Conditions -  °F | °C
As of 3:55 PM on Saturday 25 Oct 2014 (Local Time) from KOLU Reporting Station
Clear Clear  
Wind Chill: 72°   Ceiling: Unl
Heat Index: 72°   Visibility: 10mi
Dew Point: 37°   Wind: 10mph
Humidity: 29%   Direction: 90°E
Pressure: 30.08"   Gusts: NA
Location:  41.6572°N, 97.512°W
Report Text: KOLU 252055Z AUTO 09009KT 10SM CLR 22/03 A3008 RMK AO1 57024
Loading
Personal Weather Stations






























Interactive Weather Map
Tropical Storm Tracking
New forecast layout! Learn more

10-Day Weather Forecast

Advertisements
Track Severe Weather on mobile